createdAt,value
2017-11-17T00:00:42.491Z,7.20
2017-11-17T00:03:10.958Z,7.20
2017-11-17T00:05:38.487Z,7.20
2017-11-17T00:08:07.624Z,7.00
2017-11-17T00:10:35.084Z,7.00
2017-11-17T00:13:02.574Z,7.00
2017-11-17T00:15:30.066Z,6.90
2017-11-17T00:17:58.294Z,6.80
2017-11-17T00:20:25.782Z,6.80
2017-11-17T00:22:54.049Z,6.80
2017-11-17T00:25:21.517Z,6.80
2017-11-17T00:27:49.766Z,6.70
2017-11-17T00:30:17.254Z,6.70
2017-11-17T00:32:45.509Z,6.60
2017-11-17T00:35:13.089Z,6.60
2017-11-17T00:37:41.349Z,6.60
2017-11-17T00:40:08.815Z,6.50
2017-11-17T00:42:37.067Z,6.40
2017-11-17T00:45:06.012Z,6.40
2017-11-17T00:47:33.524Z,6.40
2017-11-17T00:50:01.020Z,6.30
2017-11-17T00:52:29.275Z,6.20
2017-11-17T00:54:57.540Z,6.20
2017-11-17T00:57:25.095Z,6.20
2017-11-17T00:59:53.391Z,6.10
2017-11-17T01:02:20.920Z,6.10
2017-11-17T01:04:48.392Z,6.10
2017-11-17T01:07:16.659Z,6.00
2017-11-17T01:09:45.669Z,5.90
2017-11-17T01:12:13.910Z,5.90
2017-11-17T01:14:41.516Z,5.80
2017-11-17T01:17:09.053Z,5.80
2017-11-17T01:19:36.548Z,5.80
2017-11-17T01:22:04.060Z,5.80
2017-11-17T01:24:32.355Z,5.70
2017-11-17T01:27:01.128Z,5.80
2017-11-17T01:29:28.622Z,5.80
2017-11-17T01:31:56.156Z,5.70
2017-11-17T01:34:24.415Z,5.60
2017-11-17T01:36:52.000Z,5.60
2017-11-17T01:39:19.547Z,5.60
2017-11-17T01:41:47.791Z,5.60
2017-11-17T01:44:15.285Z,5.60
2017-11-17T01:46:43.532Z,5.50
2017-11-17T01:49:12.533Z,5.40
2017-11-17T01:51:40.836Z,5.30
2017-11-17T01:54:09.095Z,5.30
2017-11-17T01:56:37.425Z,5.30
2017-11-17T01:59:04.927Z,5.20
2017-11-17T02:01:33.163Z,5.30
2017-11-17T02:04:00.771Z,5.20
2017-11-17T02:06:29.021Z,5.30
2017-11-17T02:08:58.004Z,5.20
2017-11-17T02:11:25.465Z,5.20
2017-11-17T02:13:53.039Z,5.20
2017-11-17T02:16:21.140Z,5.10
2017-11-17T02:18:48.652Z,5.10
2017-11-17T02:21:16.120Z,5.10
2017-11-17T02:23:44.352Z,5.10
2017-11-17T02:26:11.832Z,5.00
2017-11-17T02:28:39.316Z,5.00
2017-11-17T02:31:06.774Z,4.90
2017-11-17T02:33:35.741Z,5.00
2017-11-17T02:36:03.238Z,5.00
2017-11-17T02:38:31.518Z,5.10
2017-11-17T02:40:59.795Z,5.00
2017-11-17T02:43:28.067Z,5.00
2017-11-17T02:45:56.343Z,5.00
2017-11-17T02:48:23.904Z,5.00
2017-11-17T02:50:52.158Z,5.00
2017-11-17T02:53:19.647Z,5.00
2017-11-17T02:55:47.118Z,5.00
2017-11-17T02:58:14.636Z,4.90
2017-11-17T03:00:42.860Z,5.10
2017-11-17T03:03:11.385Z,5.10
2017-11-17T03:05:38.859Z,5.20
2017-11-17T03:08:07.086Z,5.30
2017-11-17T03:10:34.549Z,5.20
2017-11-17T03:13:02.034Z,5.30
2017-11-17T03:15:30.272Z,5.30
2017-11-17T03:17:57.762Z,5.30
2017-11-17T03:20:25.354Z,5.30
2017-11-17T03:22:52.780Z,5.40
2017-11-17T03:25:21.029Z,5.40
2017-11-17T03:27:48.500Z,5.40
2017-11-17T03:30:15.978Z,5.50
2017-11-17T03:32:44.222Z,5.40
2017-11-17T03:35:11.821Z,5.40
2017-11-17T03:37:40.073Z,5.40
2017-11-17T03:40:07.535Z,5.40
2017-11-17T03:42:35.019Z,5.40
2017-11-17T03:45:03.304Z,5.30
2017-11-17T03:47:30.803Z,5.30
2017-11-17T03:49:58.298Z,5.20
2017-11-17T03:52:25.858Z,5.20
2017-11-17T03:54:54.098Z,5.20
2017-11-17T03:57:21.694Z,5.20
2017-11-17T03:59:49.945Z,5.10
2017-11-17T04:02:17.444Z,5.10
2017-11-17T04:04:44.962Z,5.10
2017-11-17T04:07:12.425Z,5.10
2017-11-17T04:09:40.748Z,5.10
2017-11-17T04:12:08.480Z,5.00
2017-11-17T04:14:35.968Z,5.10
2017-11-17T04:17:03.491Z,5.10
2017-11-17T04:19:31.754Z,5.20
2017-11-17T04:21:59.337Z,5.20
2017-11-17T04:24:27.564Z,5.40
2017-11-17T04:26:55.140Z,5.40
2017-11-17T04:29:22.602Z,5.40
2017-11-17T04:31:50.069Z,5.40
2017-11-17T04:34:19.328Z,5.40
2017-11-17T04:36:46.839Z,5.40
2017-11-17T04:39:15.103Z,5.40
2017-11-17T04:41:43.373Z,5.30
2017-11-17T04:44:11.624Z,5.20
2017-11-17T04:46:39.210Z,5.20
2017-11-17T04:49:07.489Z,5.20
2017-11-17T04:51:35.802Z,5.20
2017-11-17T04:54:04.300Z,5.10
2017-11-17T04:56:31.799Z,5.10
2017-11-17T04:59:00.044Z,5.20
2017-11-17T05:01:28.345Z,5.20
2017-11-17T05:03:55.815Z,5.20
2017-11-17T05:06:24.051Z,5.30
2017-11-17T05:08:51.535Z,5.30
2017-11-17T05:11:18.996Z,5.30
2017-11-17T05:13:47.229Z,5.30
2017-11-17T05:16:15.331Z,5.30
2017-11-17T05:18:43.825Z,5.30
2017-11-17T05:21:12.059Z,5.30
2017-11-17T05:23:39.545Z,5.30
2017-11-17T05:26:07.512Z,5.30
2017-11-17T05:28:34.980Z,5.30
2017-11-17T05:31:03.330Z,5.20
2017-11-17T05:33:30.824Z,5.20
2017-11-17T05:35:59.081Z,5.10
2017-11-17T05:38:27.342Z,5.00
2017-11-17T05:40:56.309Z,5.00
2017-11-17T05:43:23.813Z,5.00
2017-11-17T05:45:51.312Z,4.90
2017-11-17T05:48:18.783Z,4.90
2017-11-17T05:50:47.201Z,4.80
2017-11-17T05:53:15.446Z,4.80
2017-11-17T05:55:43.038Z,4.80
2017-11-17T05:58:10.666Z,4.80
2017-11-17T06:00:38.182Z,4.80
2017-11-17T06:03:05.664Z,4.90
2017-11-17T06:05:33.140Z,4.90
2017-11-17T06:08:01.253Z,4.70
2017-11-17T06:10:29.528Z,4.70
2017-11-17T06:12:57.765Z,4.60
2017-11-17T06:15:25.290Z,4.60
2017-11-17T06:17:52.758Z,4.60
2017-11-17T06:20:20.252Z,4.60
2017-11-17T06:22:48.516Z,4.50
2017-11-17T06:25:15.994Z,4.50
2017-11-17T06:27:43.666Z,4.40
2017-11-17T06:30:11.946Z,4.40
2017-11-17T06:32:40.193Z,4.40
2017-11-17T06:35:08.462Z,4.30
2017-11-17T06:37:35.945Z,4.30
2017-11-17T06:40:03.470Z,4.20
2017-11-17T06:42:30.941Z,4.20
2017-11-17T06:44:58.409Z,4.20
2017-11-17T06:47:27.374Z,4.10
2017-11-17T06:49:54.861Z,4.10
2017-11-17T06:52:22.333Z,4.10
2017-11-17T06:54:50.585Z,4.00
2017-11-17T06:57:18.853Z,4.10
2017-11-17T06:59:46.394Z,4.10
2017-11-17T07:02:13.871Z,4.10
2017-11-17T07:04:41.332Z,4.00
2017-11-17T07:07:09.585Z,4.10
2017-11-17T07:09:37.093Z,4.00
2017-11-17T07:12:05.350Z,4.20
2017-11-17T07:14:33.605Z,4.20
2017-11-17T07:17:01.095Z,4.20
2017-11-17T07:19:29.644Z,4.20
2017-11-17T07:21:57.224Z,4.20
2017-11-17T07:24:25.457Z,4.20
2017-11-17T07:26:52.929Z,4.20
2017-11-17T07:29:20.409Z,4.20
2017-11-17T07:31:48.534Z,4.20
2017-11-17T07:34:16.006Z,4.20
2017-11-17T07:36:43.501Z,4.10
2017-11-17T07:39:10.971Z,4.10
2017-11-17T07:41:38.461Z,4.20
2017-11-17T07:44:05.934Z,4.20
2017-11-17T07:46:33.431Z,4.20
2017-11-17T07:49:01.801Z,4.20
2017-11-17T07:51:29.284Z,4.20
2017-11-17T07:53:57.531Z,4.30
2017-11-17T07:56:25.812Z,4.30
2017-11-17T07:58:53.311Z,4.20
2017-11-17T08:01:20.810Z,4.30
2017-11-17T08:03:48.278Z,4.30
2017-11-17T08:06:16.521Z,4.40
2017-11-17T08:08:43.988Z,4.40
2017-11-17T08:11:11.465Z,4.50
2017-11-17T08:13:40.479Z,4.80
2017-11-17T08:16:08.705Z,5.00
2017-11-17T08:18:49.920Z,5.00
2017-11-17T08:21:18.209Z,5.40
2017-11-17T08:23:46.449Z,5.50
2017-11-17T08:26:13.941Z,5.50
2017-11-17T08:28:42.216Z,5.80
2017-11-17T08:31:10.452Z,6.00
2017-11-17T08:33:37.925Z,6.00
2017-11-17T08:36:05.489Z,6.10
2017-11-17T08:38:32.964Z,6.20
2017-11-17T08:41:01.212Z,6.30
2017-11-17T08:43:29.451Z,6.30
2017-11-17T08:45:56.916Z,6.30
2017-11-17T08:48:24.383Z,6.30
2017-11-17T08:50:51.899Z,6.30
2017-11-17T08:53:19.392Z,6.20
2017-11-17T08:55:47.037Z,6.20
2017-11-17T08:58:14.510Z,6.20
2017-11-17T09:00:41.971Z,6.20
2017-11-17T09:03:09.441Z,6.20
2017-11-17T09:05:37.025Z,6.20
2017-11-17T09:08:05.914Z,6.40
2017-11-17T09:10:34.173Z,6.40
2017-11-17T09:13:01.729Z,6.40
2017-11-17T09:15:29.209Z,6.50
2017-11-17T09:17:57.441Z,6.60
2017-11-17T09:20:24.917Z,6.70
2017-11-17T09:22:53.225Z,7.00
2017-11-17T09:25:21.507Z,7.20
2017-11-17T09:27:49.750Z,7.40
2017-11-17T09:30:17.220Z,7.40
2017-11-17T09:32:46.444Z,7.80
2017-11-17T09:35:13.927Z,7.90
2017-11-17T09:37:42.173Z,8.10
2017-11-17T09:40:09.741Z,8.40
2017-11-17T09:42:37.336Z,8.80
2017-11-17T09:45:04.797Z,9.20
2017-11-17T09:47:33.113Z,9.40
2017-11-17T09:50:01.420Z,9.60
2017-11-17T09:52:28.877Z,9.70
2017-11-17T09:54:56.324Z,9.80
2017-11-17T09:57:23.797Z,9.90
2017-11-17T09:59:51.288Z,10.10
2017-11-17T10:02:18.757Z,10.20
2017-11-17T10:04:46.245Z,10.20
2017-11-17T10:07:13.785Z,10.20
2017-11-17T10:09:42.045Z,10.30
2017-11-17T10:12:09.520Z,10.30
2017-11-17T10:14:37.784Z,10.30
2017-11-17T10:17:06.056Z,10.50
2017-11-17T10:19:33.609Z,10.50
2017-11-17T10:22:01.078Z,10.60
2017-11-17T10:24:29.368Z,10.90
2017-11-17T10:26:57.639Z,10.90
2017-11-17T10:29:25.187Z,10.90
2017-11-17T10:31:53.466Z,11.10
2017-11-17T10:34:21.728Z,11.10
2017-11-17T10:36:49.209Z,11.10
2017-11-17T10:39:17.534Z,11.20
2017-11-17T10:41:45.911Z,11.20
2017-11-17T10:44:13.411Z,11.50
2017-11-17T10:46:41.656Z,12.90
2017-11-17T10:49:09.156Z,12.90
2017-11-17T10:51:37.403Z,13.90
2017-11-17T10:54:05.781Z,14.00
2017-11-17T10:56:33.303Z,14.00
2017-11-17T10:59:04.728Z,14.00
2017-11-17T11:01:32.212Z,14.00
2017-11-17T11:03:59.723Z,14.30
2017-11-17T11:06:27.959Z,15.10
2017-11-17T11:08:55.455Z,15.10
2017-11-17T11:11:29.528Z,15.10
2017-11-17T11:13:57.005Z,15.10
2017-11-17T11:16:24.503Z,14.80
2017-11-17T11:18:52.008Z,14.50
2017-11-17T11:21:19.487Z,14.10
2017-11-17T11:23:46.972Z,13.70
2017-11-17T11:26:14.504Z,13.30
2017-11-17T11:28:42.753Z,12.70
2017-11-17T11:31:10.240Z,12.70
2017-11-17T11:33:38.527Z,12.50
2017-11-17T11:36:06.318Z,12.50
2017-11-17T11:38:33.817Z,12.40
2017-11-17T11:41:01.319Z,12.50
2017-11-17T11:43:28.824Z,12.50
2017-11-17T11:45:56.309Z,12.60
2017-11-17T11:48:24.611Z,12.70
2017-11-17T11:50:52.224Z,12.70
2017-11-17T11:53:19.704Z,12.80
2017-11-17T11:55:48.841Z,13.10
2017-11-17T11:58:16.354Z,13.10
2017-11-17T12:00:45.633Z,13.30
2017-11-17T12:03:13.113Z,13.20
2017-11-17T12:05:41.389Z,13.20
2017-11-17T12:08:09.646Z,13.20
2017-11-17T12:10:37.237Z,13.20
2017-11-17T12:13:05.479Z,13.20
2017-11-17T12:15:32.970Z,13.20
2017-11-17T12:18:00.477Z,13.10
2017-11-17T12:20:27.966Z,13.00
2017-11-17T12:22:56.219Z,12.50
2017-11-17T12:25:23.722Z,12.50
2017-11-17T12:27:51.216Z,12.50
2017-11-17T12:30:18.695Z,12.40
2017-11-17T12:32:46.203Z,12.60
2017-11-17T12:35:13.708Z,12.70
2017-11-17T12:37:41.700Z,12.80
2017-11-17T12:40:10.003Z,12.50
2017-11-17T12:42:37.610Z,12.50
2017-11-17T12:45:05.101Z,12.30
2017-11-17T12:47:33.370Z,11.80
2017-11-17T12:50:01.638Z,11.80
2017-11-17T12:52:29.915Z,11.60
2017-11-17T12:54:57.396Z,11.50
2017-11-17T12:57:24.901Z,11.40
2017-11-17T12:59:52.421Z,11.20
2017-11-17T13:02:19.915Z,11.00
2017-11-17T13:04:47.501Z,10.90
2017-11-17T13:07:14.991Z,11.10
2017-11-17T13:09:42.582Z,11.10
2017-11-17T13:12:10.087Z,11.00
2017-11-17T13:14:38.375Z,11.10
2017-11-17T13:17:05.924Z,11.00
2017-11-17T13:19:34.184Z,10.90
2017-11-17T13:22:02.357Z,10.90
2017-11-17T13:24:29.927Z,10.80
2017-11-17T13:26:58.217Z,10.50
2017-11-17T13:29:25.712Z,10.50
2017-11-17T13:31:53.176Z,10.60
2017-11-17T13:34:20.697Z,10.50
2017-11-17T13:36:48.763Z,10.50
2017-11-17T13:39:16.241Z,10.50
2017-11-17T13:41:43.754Z,10.70
2017-11-17T13:44:11.284Z,10.70
2017-11-17T13:46:38.749Z,10.70
2017-11-17T13:49:06.256Z,10.80
2017-11-17T13:51:33.748Z,10.80
2017-11-17T13:54:01.243Z,10.80
2017-11-17T13:56:29.517Z,10.90
2017-11-17T13:58:57.843Z,10.80
2017-11-17T14:01:25.324Z,10.80
2017-11-17T14:03:52.912Z,10.70
2017-11-17T14:06:21.151Z,10.80
2017-11-17T14:08:48.615Z,10.80
2017-11-17T14:11:16.192Z,10.80
2017-11-17T14:13:44.472Z,10.70
2017-11-17T14:16:11.936Z,10.70
2017-11-17T14:18:40.177Z,10.60
2017-11-17T14:21:07.640Z,10.60
2017-11-17T14:23:35.528Z,10.50
2017-11-17T14:26:03.020Z,10.50
2017-11-17T14:28:30.485Z,10.40
2017-11-17T14:30:57.949Z,10.40
2017-11-17T14:33:25.447Z,10.40
2017-11-17T14:35:52.908Z,10.40
2017-11-17T14:38:20.369Z,10.40
2017-11-17T14:40:48.700Z,10.30
2017-11-17T14:43:16.224Z,10.30
2017-11-17T14:45:44.457Z,10.20
2017-11-17T14:48:11.955Z,10.20
2017-11-17T14:50:40.234Z,10.00
2017-11-17T14:53:08.514Z,9.90
2017-11-17T14:55:36.929Z,9.80
2017-11-17T14:58:04.476Z,9.80
2017-11-17T15:00:31.998Z,9.80
2017-11-17T15:03:00.255Z,9.70
2017-11-17T15:05:28.427Z,9.70
2017-11-17T15:07:55.889Z,9.60
2017-11-17T15:10:23.391Z,9.40
2017-11-17T15:12:50.936Z,9.40
2017-11-17T15:15:18.421Z,9.40
2017-11-17T15:17:45.929Z,9.30
2017-11-17T15:20:14.188Z,9.10
2017-11-17T15:22:42.533Z,9.10
2017-11-17T15:25:10.022Z,9.10
2017-11-17T15:27:37.626Z,9.00
2017-11-17T15:30:05.112Z,8.90
2017-11-17T15:32:32.593Z,8.90
2017-11-17T15:35:02.409Z,8.60
2017-11-17T15:37:29.905Z,8.60
2017-11-17T15:39:57.462Z,8.60
2017-11-17T15:42:24.976Z,8.50
2017-11-17T15:44:52.473Z,8.30
2017-11-17T15:47:20.726Z,8.30
2017-11-17T15:49:48.226Z,8.30
2017-11-17T15:52:15.714Z,8.20
2017-11-17T15:54:43.215Z,8.20
2017-11-17T15:57:11.483Z,8.00
2017-11-17T15:59:39.737Z,7.90
2017-11-17T16:02:07.223Z,8.00
2017-11-17T16:04:35.484Z,7.90
2017-11-17T16:07:03.763Z,7.80
2017-11-17T16:09:32.039Z,7.70
2017-11-17T16:12:00.315Z,7.70
2017-11-17T16:14:28.569Z,7.70
2017-11-17T16:16:56.184Z,7.60
2017-11-17T16:19:23.743Z,7.60
2017-11-17T16:21:51.323Z,7.60
2017-11-17T16:24:18.841Z,7.50
2017-11-17T16:26:46.382Z,7.50
2017-11-17T16:29:14.654Z,7.40
2017-11-17T16:31:43.118Z,7.40
2017-11-17T16:34:10.620Z,7.30
2017-11-17T16:36:38.105Z,7.30
2017-11-17T16:39:05.605Z,7.30
2017-11-17T16:41:33.906Z,7.20
2017-11-17T16:44:01.405Z,7.20
2017-11-17T16:46:29.090Z,7.10
2017-11-17T16:48:56.615Z,7.10
2017-11-17T16:51:24.094Z,7.10
2017-11-17T16:53:52.360Z,7.00
2017-11-17T16:56:19.862Z,7.00
2017-11-17T16:58:48.141Z,6.80
2017-11-17T17:01:16.398Z,6.80
2017-11-17T17:03:43.879Z,6.80
2017-11-17T17:06:12.463Z,6.80
2017-11-17T17:08:39.992Z,6.80
2017-11-17T17:11:08.237Z,6.60
2017-11-17T17:13:35.729Z,6.60
2017-11-17T17:16:04.023Z,6.60
2017-11-17T17:18:32.294Z,6.60
2017-11-17T17:21:00.567Z,6.60
2017-11-17T17:23:28.801Z,6.50
2017-11-17T17:25:56.264Z,6.50
2017-11-17T17:28:23.767Z,6.50
2017-11-17T17:30:52.039Z,6.30
2017-11-17T17:33:19.584Z,6.30
2017-11-17T17:35:48.678Z,6.30
2017-11-17T17:38:16.932Z,6.20
2017-11-17T17:40:44.419Z,6.20
2017-11-17T17:43:12.657Z,6.20
2017-11-17T17:45:40.129Z,6.20
2017-11-17T17:48:08.370Z,6.20
2017-11-17T17:50:35.848Z,6.20
2017-11-17T17:53:03.366Z,6.20
2017-11-17T17:55:30.900Z,6.20
2017-11-17T17:57:59.188Z,6.10
2017-11-17T18:00:26.769Z,6.10
2017-11-17T18:02:54.257Z,6.10
2017-11-17T18:05:21.742Z,6.10
2017-11-17T18:07:50.000Z,6.00
2017-11-17T18:10:19.008Z,6.00
2017-11-17T18:12:47.097Z,6.00
2017-11-17T18:15:15.336Z,6.00
2017-11-17T18:17:42.787Z,6.00
2017-11-17T18:20:10.298Z,6.10
2017-11-17T18:22:37.832Z,6.10
2017-11-17T18:25:05.392Z,6.10
2017-11-17T18:27:33.676Z,6.20
2017-11-17T18:30:01.930Z,6.30
2017-11-17T18:32:29.404Z,6.30
2017-11-17T18:34:57.685Z,6.30
2017-11-17T18:37:25.936Z,6.30
2017-11-17T18:39:53.512Z,6.40
2017-11-17T18:42:21.818Z,6.50
2017-11-17T18:44:49.290Z,6.40
2017-11-17T18:47:16.752Z,6.50
2017-11-17T18:49:44.232Z,6.60
2017-11-17T18:52:11.687Z,6.50
2017-11-17T18:54:39.181Z,6.50
2017-11-17T18:57:06.620Z,6.50
2017-11-17T18:59:34.853Z,6.50
2017-11-17T19:02:02.359Z,6.50
2017-11-17T19:04:29.804Z,6.50
2017-11-17T19:06:57.255Z,6.50
2017-11-17T19:09:24.763Z,6.40
2017-11-17T19:11:53.000Z,6.30
2017-11-17T19:14:21.290Z,6.20
2017-11-17T19:16:48.895Z,6.20
2017-11-17T19:19:16.344Z,6.10
2017-11-17T19:21:43.831Z,6.10
2017-11-17T19:24:11.481Z,6.00
2017-11-17T19:26:39.750Z,5.90
2017-11-17T19:29:07.238Z,5.90
2017-11-17T19:31:35.490Z,5.90
2017-11-17T19:34:02.973Z,5.80
2017-11-17T19:36:30.453Z,5.80
2017-11-17T19:38:57.961Z,5.80
2017-11-17T19:41:25.625Z,5.80
2017-11-17T19:43:53.118Z,5.80
2017-11-17T19:46:21.351Z,5.90
2017-11-17T19:48:48.840Z,5.90
2017-11-17T19:51:17.081Z,6.00
2017-11-17T19:53:44.544Z,6.00
2017-11-17T19:56:12.038Z,6.10
2017-11-17T19:58:40.267Z,6.20
2017-11-17T20:01:07.752Z,6.20
2017-11-17T20:03:35.225Z,6.30
2017-11-17T20:06:03.458Z,6.40
2017-11-17T20:08:30.929Z,6.40
2017-11-17T20:10:58.397Z,6.50
2017-11-17T20:13:25.855Z,6.50
2017-11-17T20:15:54.083Z,6.50
2017-11-17T20:18:21.553Z,6.50
2017-11-17T20:20:49.018Z,6.50
2017-11-17T20:23:16.519Z,6.60
2017-11-17T20:25:44.779Z,6.60
2017-11-17T20:28:12.268Z,6.60
2017-11-17T20:30:39.744Z,6.70
2017-11-17T20:33:07.242Z,6.80
2017-11-17T20:35:35.521Z,6.90
2017-11-17T20:38:03.081Z,6.80
2017-11-17T20:40:32.061Z,6.90
2017-11-17T20:42:59.628Z,6.90
2017-11-17T20:45:27.853Z,7.00
2017-11-17T20:47:55.351Z,6.90
2017-11-17T20:50:22.850Z,7.00
2017-11-17T20:52:50.329Z,7.00
2017-11-17T20:55:17.835Z,7.00
2017-11-17T20:57:45.347Z,7.00
2017-11-17T21:00:12.961Z,7.00
2017-11-17T21:02:40.465Z,7.00
2017-11-17T21:05:07.998Z,7.00
2017-11-17T21:07:36.225Z,7.00
2017-11-17T21:10:03.705Z,7.00
2017-11-17T21:12:31.261Z,7.00
2017-11-17T21:14:58.709Z,7.00
2017-11-17T21:17:26.204Z,7.00
2017-11-17T21:19:54.587Z,7.10
2017-11-17T21:22:22.056Z,7.00
2017-11-17T21:24:49.531Z,7.00
2017-11-17T21:27:17.010Z,7.10
2017-11-17T21:29:44.496Z,7.10
2017-11-17T21:32:12.917Z,7.10
2017-11-17T21:34:40.412Z,7.10
2017-11-17T21:37:08.510Z,7.10
2017-11-17T21:39:36.074Z,7.10
2017-11-17T21:42:04.315Z,7.00
2017-11-17T21:44:32.548Z,7.10
2017-11-17T21:47:00.048Z,7.10
2017-11-17T21:49:28.245Z,7.10
2017-11-17T21:51:56.476Z,7.10
2017-11-17T21:54:23.965Z,7.10
2017-11-17T21:56:51.425Z,7.10
2017-11-17T21:59:18.975Z,7.10
2017-11-17T22:01:46.465Z,7.20
2017-11-17T22:04:14.005Z,7.20
2017-11-17T22:06:42.257Z,7.20
2017-11-17T22:09:11.264Z,7.20
2017-11-17T22:11:39.529Z,7.30
2017-11-17T22:14:06.994Z,7.30
2017-11-17T22:16:34.829Z,7.30
2017-11-17T22:19:02.308Z,7.30
2017-11-17T22:21:29.805Z,7.30
2017-11-17T22:23:57.301Z,7.30
2017-11-17T22:26:24.828Z,7.40
2017-11-17T22:28:52.325Z,7.40
2017-11-17T22:31:19.851Z,7.40
2017-11-17T22:33:47.418Z,7.40
2017-11-17T22:36:14.903Z,7.40
2017-11-17T22:38:42.401Z,7.40
2017-11-17T22:41:10.652Z,7.40
2017-11-17T22:43:38.116Z,7.40
2017-11-17T22:46:06.393Z,7.50
2017-11-17T22:48:34.648Z,7.40
2017-11-17T22:51:02.232Z,7.40
2017-11-17T22:53:30.460Z,7.50
2017-11-17T22:55:57.952Z,7.40
2017-11-17T22:58:25.508Z,7.50
2017-11-17T23:00:53.063Z,7.50
2017-11-17T23:03:20.521Z,7.50
2017-11-17T23:05:48.701Z,7.50
2017-11-17T23:08:16.269Z,7.50
2017-11-17T23:10:44.503Z,7.40
2017-11-17T23:13:11.997Z,7.40
2017-11-17T23:15:40.232Z,7.40
2017-11-17T23:18:07.747Z,7.40
2017-11-17T23:20:35.238Z,7.40
2017-11-17T23:23:02.755Z,7.40
2017-11-17T23:25:30.989Z,7.40
2017-11-17T23:27:58.453Z,7.40
2017-11-17T23:30:25.935Z,7.40
2017-11-17T23:32:54.169Z,7.40
2017-11-17T23:35:21.632Z,7.40
2017-11-17T23:37:49.201Z,7.40
2017-11-17T23:40:16.652Z,7.50
2017-11-17T23:42:44.117Z,7.50
2017-11-17T23:45:11.604Z,7.50
2017-11-17T23:47:39.840Z,7.50
2017-11-17T23:50:07.317Z,7.50
2017-11-17T23:52:34.780Z,7.50
2017-11-17T23:55:03.046Z,7.50
2017-11-17T23:57:30.518Z,7.50
2017-11-17T23:59:58.776Z,7.50
